sensor_id;sensor_type;location;lat;lon;timestamp;pressure;altitude;pressure_sealevel;temperature;humidity
49945;BME280;35838;49.134;9.212;2023-12-22T00:00:56;98616.66;;;5.88;100.00
49945;BME280;35838;49.134;9.212;2023-12-22T00:02:29;98604.69;;;5.85;100.00
49945;BME280;35838;49.134;9.212;2023-12-22T00:04:00;98607.19;;;5.93;100.00
49945;BME280;35838;49.134;9.212;2023-12-22T00:05:36;98616.63;;;5.94;100.00
49945;BME280;35838;49.134;9.212;2023-12-22T00:07:07;98617.50;;;5.88;100.00
49945;BME280;35838;49.134;9.212;2023-12-22T00:08:43;98606.38;;;5.88;100.00
49945;BME280;35838;49.134;9.212;2023-12-22T00:10:14;98597.75;;;5.90;100.00
49945;BME280;35838;49.134;9.212;2023-12-22T00:11:48;98608.94;;;5.88;100.00
49945;BME280;35838;49.134;9.212;2023-12-22T00:13:19;98616.63;;;5.91;100.00
49945;BME280;35838;49.134;9.212;2023-12-22T00:14:52;98618.44;;;5.79;100.00
49945;BME280;35838;49.134;9.212;2023-12-22T00:16:24;98613.22;;;5.87;100.00
49945;BME280;35838;49.134;9.212;2023-12-22T00:17:57;98630.47;;;5.74;100.00
49945;BME280;35838;49.134;9.212;2023-12-22T00:19:28;98629.66;;;5.68;100.00
49945;BME280;35838;49.134;9.212;2023-12-22T00:21:02;98632.28;;;5.55;100.00
49945;BME280;35838;49.134;9.212;2023-12-22T00:22:33;98649.47;;;5.47;100.00
49945;BME280;35838;49.134;9.212;2023-12-22T00:24:09;98650.25;;;5.61;100.00
49945;BME280;35838;49.134;9.212;2023-12-22T00:25:40;98678.56;;;5.68;100.00
49945;BME280;35838;49.134;9.212;2023-12-22T00:27:16;98690.66;;;5.33;100.00
49945;BME280;35838;49.134;9.212;2023-12-22T00:28:47;98671.00;;;5.20;100.00
49945;BME280;35838;49.134;9.212;2023-12-22T00:30:21;98659.00;;;5.09;100.00
49945;BME280;35838;49.134;9.212;2023-12-22T00:31:52;98657.25;;;5.17;100.00
49945;BME280;35838;49.134;9.212;2023-12-22T00:33:25;98658.13;;;5.13;100.00
49945;BME280;35838;49.134;9.212;2023-12-22T00:34:56;98668.41;;;5.20;100.00
49945;BME280;35838;49.134;9.212;2023-12-22T00:36:30;98659.81;;;5.19;100.00
49945;BME280;35838;49.134;9.212;2023-12-22T00:38:01;98666.69;;;5.25;100.00
49945;BME280;35838;49.134;9.212;2023-12-22T00:39:37;98677.00;;;5.18;100.00
49945;BME280;35838;49.134;9.212;2023-12-22T00:41:09;98682.16;;;5.09;100.00
49945;BME280;35838;49.134;9.212;2023-12-22T00:42:44;98679.56;;;5.01;100.00
49945;BME280;35838;49.134;9.212;2023-12-22T00:44:15;98666.72;;;4.94;100.00
49945;BME280;35838;49.134;9.212;2023-12-22T00:45:48;98662.44;;;4.91;100.00
49945;BME280;35838;49.134;9.212;2023-12-22T00:47:19;98673.56;;;5.09;100.00
49945;BME280;35838;49.134;9.212;2023-12-22T00:48:53;98663.28;;;4.98;100.00
49945;BME280;35838;49.134;9.212;2023-12-22T00:50:24;98667.56;;;5.00;100.00
49945;BME280;35838;49.134;9.212;2023-12-22T00:51:57;98662.44;;;4.91;100.00
49945;BME280;35838;49.134;9.212;2023-12-22T00:53:28;98661.59;;;5.00;100.00
49945;BME280;35838;49.134;9.212;2023-12-22T00:55:05;98649.59;;;4.97;100.00
49945;BME280;35838;49.134;9.212;2023-12-22T00:56:36;98614.41;;;5.12;100.00
49945;BME280;35838;49.134;9.212;2023-12-22T00:58:09;98670.97;;;5.23;100.00
49945;BME280;35838;49.134;9.212;2023-12-22T00:59:40;98665.00;;;5.04;100.00
49945;BME280;35838;49.134;9.212;2023-12-22T01:01:18;98636.69;;;5.14;100.00
49945;BME280;35838;49.134;9.212;2023-12-22T01:02:49;98657.28;;;5.08;100.00
49945;BME280;35838;49.134;9.212;2023-12-22T01:04:22;98674.44;;;5.14;100.00
49945;BME280;35838;49.134;9.212;2023-12-22T01:05:53;98672.66;;;5.28;100.00
49945;BME280;35838;49.134;9.212;2023-12-22T01:07:27;98670.97;;;5.18;100.00
49945;BME280;35838;49.134;9.212;2023-12-22T01:08:58;98642.66;;;5.27;100.00
49945;BME280;35838;49.134;9.212;2023-12-22T01:10:35;98640.06;;;5.33;100.00
49945;BME280;35838;49.134;9.212;2023-12-22T01:12:09;98642.69;;;5.24;100.00
49945;BME280;35838;49.134;9.212;2023-12-22T01:13:41;98632.38;;;5.21;100.00
49945;BME280;35838;49.134;9.212;2023-12-22T01:15:14;98629.75;;;5.33;100.00
49945;BME280;35838;49.134;9.212;2023-12-22T01:16:45;98646.09;;;5.17;100.00
49945;BME280;35838;49.134;9.212;2023-12-22T01:18:19;98633.22;;;5.31;100.00
49945;BME280;35838;49.134;9.212;2023-12-22T01:19:50;98642.69;;;5.24;100.00
49945;BME280;35838;49.134;9.212;2023-12-22T01:21:24;98657.22;;;5.25;100.00
49945;BME280;35838;49.134;9.212;2023-12-22T01:22:55;98651.19;;;5.43;100.00
49945;BME280;35838;49.134;9.212;2023-12-22T01:24:28;98645.22;;;5.30;100.00
49945;BME280;35838;49.134;9.212;2023-12-22T01:26:02;98651.25;;;5.23;100.00
49945;BME280;35838;49.134;9.212;2023-12-22T01:27:36;98644.34;;;5.34;100.00
49945;BME280;35838;49.134;9.212;2023-12-22T01:29:07;98640.03;;;5.43;100.00
49945;BME280;35838;49.134;9.212;2023-12-22T01:30:40;98634.84;;;5.51;100.00
49945;BME280;35838;49.134;9.212;2023-12-22T01:32:11;98622.91;;;5.37;100.00
49945;BME280;35838;49.134;9.212;2023-12-22T01:33:45;98646.03;;;5.48;100.00
49945;BME280;35838;49.134;9.212;2023-12-22T01:35:16;98642.63;;;5.38;100.00
49945;BME280;35838;49.134;9.212;2023-12-22T01:36:49;98646.88;;;5.44;100.00
49945;BME280;35838;49.134;9.212;2023-12-22T01:38:20;98656.28;;;5.54;100.00
49945;BME280;35838;49.134;9.212;2023-12-22T01:39:55;98665.75;;;5.43;100.00
49945;BME280;35838;49.134;9.212;2023-12-22T01:41:28;98658.06;;;5.33;100.00
49945;BME280;35838;49.134;9.212;2023-12-22T01:43:02;98652.06;;;5.34;100.00
49945;BME280;35838;49.134;9.212;2023-12-22T01:44:33;98658.94;;;5.42;100.00
49945;BME280;35838;49.134;9.212;2023-12-22T01:46:06;98656.41;;;5.20;100.00
49945;BME280;35838;49.134;9.212;2023-12-22T01:47:38;98655.53;;;5.27;100.00
49945;BME280;35838;49.134;9.212;2023-12-22T01:49:12;98665.84;;;5.15;100.00
49945;BME280;35838;49.134;9.212;2023-12-22T01:50:43;98659.81;;;5.24;100.00
49945;BME280;35838;49.134;9.212;2023-12-22T01:52:17;98676.09;;;5.30;100.00
49945;BME280;35838;49.134;9.212;2023-12-22T01:53:48;98657.28;;;5.10;100.00
49945;BME280;35838;49.134;9.212;2023-12-22T01:55:23;98658.13;;;5.16;100.00
49945;BME280;35838;49.134;9.212;2023-12-22T01:56:59;98663.28;;;5.12;100.00
49945;BME280;35838;49.134;9.212;2023-12-22T01:58:33;98665.00;;;5.08;100.00
49945;BME280;35838;49.134;9.212;2023-12-22T02:00:06;98668.41;;;5.24;100.00
49945;BME280;35838;49.134;9.212;2023-12-22T02:01:40;98652.97;;;5.21;100.00
49945;BME280;35838;49.134;9.212;2023-12-22T02:03:11;98662.34;;;5.34;100.00
49945;BME280;35838;49.134;9.212;2023-12-22T02:04:45;98652.06;;;5.33;100.00
49945;BME280;35838;49.134;9.212;2023-12-22T02:06:18;98645.16;;;5.46;100.00
49945;BME280;35838;49.134;9.212;2023-12-22T02:07:51;98634.88;;;5.43;100.00
49945;BME280;35838;49.134;9.212;2023-12-22T02:09:22;98641.78;;;5.41;100.00
49945;BME280;35838;49.134;9.212;2023-12-22T02:10:56;98632.31;;;5.43;100.00
49945;BME280;35838;49.134;9.212;2023-12-22T02:12:29;98625.47;;;5.43;100.00
49945;BME280;35838;49.134;9.212;2023-12-22T02:14:03;98617.75;;;5.46;100.00
49945;BME280;35838;49.134;9.212;2023-12-22T02:15:34;98620.28;;;5.45;100.00
49945;BME280;35838;49.134;9.212;2023-12-22T02:17:10;98616.84;;;5.51;100.00
49945;BME280;35838;49.134;9.212;2023-12-22T02:18:45;98616.00;;;5.44;100.00
49945;BME280;35838;49.134;9.212;2023-12-22T02:20:21;98620.31;;;5.46;100.00
49945;BME280;35838;49.134;9.212;2023-12-22T02:22:04;98613.44;;;5.42;100.00
49945;BME280;35838;49.134;9.212;2023-12-22T02:23:40;98626.25;;;5.53;100.00
49945;BME280;35838;49.134;9.212;2023-12-22T02:25:14;98608.25;;;5.53;100.00
49945;BME280;35838;49.134;9.212;2023-12-22T02:26:45;98608.25;;;5.56;100.00
49945;BME280;35838;49.134;9.212;2023-12-22T02:28:22;98626.28;;;5.55;100.00
49945;BME280;35838;49.134;9.212;2023-12-22T02:29:57;98622.88;;;5.48;100.00
49945;BME280;35838;49.134;9.212;2023-12-22T02:31:33;98607.41;;;5.51;100.00
49945;BME280;35838;49.134;9.212;2023-12-22T02:33:10;98615.13;;;5.49;100.00
49945;BME280;35838;49.134;9.212;2023-12-22T02:34:42;98609.97;;;5.49;100.00
49945;BME280;35838;49.134;9.212;2023-12-22T02:36:17;98609.13;;;5.46;100.00
49945;BME280;35838;49.134;9.212;2023-12-22T02:37:48;98598.00;;;5.44;100.00
49945;BME280;35838;49.134;9.212;2023-12-22T02:39:25;98610.84;;;5.50;100.00
49945;BME280;35838;49.134;9.212;2023-12-22T02:40:56;98603.97;;;5.52;100.00
49945;BME280;35838;49.134;9.212;2023-12-22T02:42:30;98595.34;;;5.62;100.00
49945;BME280;35838;49.134;9.212;2023-12-22T02:44:03;98602.25;;;5.51;100.00
49945;BME280;35838;49.134;9.212;2023-12-22T02:45:37;98610.78;;;5.62;100.00
49945;BME280;35838;49.134;9.212;2023-12-22T02:47:08;98601.41;;;5.47;100.00
49945;BME280;35838;49.134;9.212;2023-12-22T02:48:41;98607.41;;;5.51;100.00
49945;BME280;35838;49.134;9.212;2023-12-22T02:50:12;98614.22;;;5.61;100.00
49945;BME280;35838;49.134;9.212;2023-12-22T02:51:46;98612.50;;;5.67;100.00
49945;BME280;35838;49.134;9.212;2023-12-22T02:53:17;98620.19;;;5.65;100.00
49945;BME280;35838;49.134;9.212;2023-12-22T02:54:53;98608.13;;;5.81;100.00
49945;BME280;35838;49.134;9.212;2023-12-22T02:56:24;98604.63;;;5.94;100.00
49945;BME280;35838;49.134;9.212;2023-12-22T02:57:58;98602.03;;;6.04;100.00
49945;BME280;35838;49.134;9.212;2023-12-22T02:59:32;98609.72;;;6.07;100.00
49945;BME280;35838;49.134;9.212;2023-12-22T03:01:03;98615.69;;;6.10;100.00
49945;BME280;35838;49.134;9.212;2023-12-22T03:02:36;98613.94;;;6.17;100.00
49945;BME280;35838;49.134;9.212;2023-12-22T03:05:40;98594.06;;;6.35;100.00
49945;BME280;35838;49.134;9.212;2023-12-22T03:07:14;98593.19;;;6.39;100.00
49945;BME280;35838;49.134;9.212;2023-12-22T03:08:45;98592.34;;;6.34;100.00
49945;BME280;35838;49.134;9.212;2023-12-22T03:10:21;98594.03;;;6.36;100.00
49945;BME280;35838;49.134;9.212;2023-12-22T03:11:52;98611.22;;;6.39;100.00
49945;BME280;35838;49.134;9.212;2023-12-22T03:13:32;98605.22;;;6.37;100.00
49945;BME280;35838;49.134;9.212;2023-12-22T03:15:03;98609.50;;;6.36;100.00
49945;BME280;35838;49.134;9.212;2023-12-22T03:16:37;98606.09;;;6.36;100.00
49945;BME280;35838;49.134;9.212;2023-12-22T03:18:08;98599.22;;;6.33;100.00
49945;BME280;35838;49.134;9.212;2023-12-22T03:19:42;98595.75;;;6.40;100.00
49945;BME280;35838;49.134;9.212;2023-12-22T03:21:15;98612.88;;;6.43;100.00
49945;BME280;35838;49.134;9.212;2023-12-22T03:22:49;98618.78;;;6.57;100.00
49945;BME280;35838;49.134;9.212;2023-12-22T03:24:23;98611.94;;;6.56;100.00
49945;BME280;35838;49.134;9.212;2023-12-22T03:25:57;98603.34;;;6.54;100.00
49945;BME280;35838;49.134;9.212;2023-12-22T03:27:30;98593.13;;;6.42;100.00
49945;BME280;35838;49.134;9.212;2023-12-22T03:29:01;98599.16;;;6.41;100.00
49945;BME280;35838;49.134;9.212;2023-12-22T03:30:35;98607.75;;;6.40;100.00
49945;BME280;35838;49.134;9.212;2023-12-22T03:32:08;98611.16;;;6.43;100.00
49945;BME280;35838;49.134;9.212;2023-12-22T03:33:42;98624.09;;;6.39;100.00
49945;BME280;35838;49.134;9.212;2023-12-22T03:35:13;98614.63;;;6.39;100.00
49945;BME280;35838;49.134;9.212;2023-12-22T03:36:46;98600.84;;;6.43;100.00
49945;BME280;35838;49.134;9.212;2023-12-22T03:38:19;98600.78;;;6.53;100.00
49945;BME280;35838;49.134;9.212;2023-12-22T03:39:52;98618.75;;;6.61;100.00
49945;BME280;35838;49.134;9.212;2023-12-22T03:41:26;98610.16;;;6.65;100.00
49945;BME280;35838;49.134;9.212;2023-12-22T03:43:00;98608.38;;;6.70;100.00
49945;BME280;35838;49.134;9.212;2023-12-22T03:44:31;98601.44;;;6.75;100.00
49945;BME280;35838;49.134;9.212;2023-12-22T03:46:05;98616.03;;;6.79;100.00
49945;BME280;35838;49.134;9.212;2023-12-22T03:47:35;98618.56;;;6.84;100.00
49945;BME280;35838;49.134;9.212;2023-12-22T03:49:09;98607.34;;;6.86;100.00
49945;BME280;35838;49.134;9.212;2023-12-22T03:50:40;98598.72;;;6.90;100.00
49945;BME280;35838;49.134;9.212;2023-12-22T03:52:14;98612.50;;;6.89;100.00
49945;BME280;35838;49.134;9.212;2023-12-22T03:53:45;98615.91;;;6.90;100.00
49945;BME280;35838;49.134;9.212;2023-12-22T03:55:18;98633.09;;;6.94;100.00
49945;BME280;35838;49.134;9.212;2023-12-22T03:56:52;98632.22;;;6.94;100.00
49945;BME280;35838;49.134;9.212;2023-12-22T03:58:26;98625.31;;;6.96;100.00
49945;BME280;35838;49.134;9.212;2023-12-22T03:59:57;98623.59;;;6.95;100.00
49945;BME280;35838;49.134;9.212;2023-12-22T04:01:30;98612.44;;;6.94;100.00
49945;BME280;35838;49.134;9.212;2023-12-22T04:03:01;98620.19;;;6.93;100.00
49945;BME280;35838;49.134;9.212;2023-12-22T04:04:37;98621.03;;;6.95;100.00
49945;BME280;35838;49.134;9.212;2023-12-22T04:06:08;98610.72;;;6.93;100.00
49945;BME280;35838;49.134;9.212;2023-12-22T04:07:41;98600.41;;;6.96;100.00
49945;BME280;35838;49.134;9.212;2023-12-22T04:09:12;98599.53;;;6.96;100.00
49945;BME280;35838;49.134;9.212;2023-12-22T04:10:46;98611.56;;;6.94;100.00
49945;BME280;35838;49.134;9.212;2023-12-22T04:12:20;98614.13;;;6.97;100.00
49945;BME280;35838;49.134;9.212;2023-12-22T04:13:53;98603.75;;;7.03;100.00
49945;BME280;35838;49.134;9.212;2023-12-22T04:15:24;98599.41;;;7.08;100.00
49945;BME280;35838;49.134;9.212;2023-12-22T04:16:58;98601.97;;;7.06;100.00
49945;BME280;35838;49.134;9.212;2023-12-22T04:18:29;98610.59;;;7.05;100.00
49945;BME280;35838;49.134;9.212;2023-12-22T04:20:03;98595.97;;;7.06;100.00
49945;BME280;35838;49.134;9.212;2023-12-22T04:21:34;98599.41;;;7.08;100.00
49945;BME280;35838;49.134;9.212;2023-12-22T04:23:07;98590.81;;;7.06;100.00
49945;BME280;35838;49.134;9.212;2023-12-22T04:24:38;98603.69;;;7.08;100.00
49945;BME280;35838;49.134;9.212;2023-12-22T04:26:12;98582.25;;;7.01;100.00
49945;BME280;35838;49.134;9.212;2023-12-22T04:27:45;98602.94;;;6.98;100.00
49945;BME280;35838;49.134;9.212;2023-12-22T04:29:20;98608.16;;;6.93;100.00
49945;BME280;35838;49.134;9.212;2023-12-22T04:30:51;98613.34;;;6.92;100.00
49945;BME280;35838;49.134;9.212;2023-12-22T04:32:24;98607.34;;;6.89;100.00
49945;BME280;35838;49.134;9.212;2023-12-22T04:33:55;98613.34;;;6.90;100.00
49945;BME280;35838;49.134;9.212;2023-12-22T04:35:29;98622.78;;;6.91;100.00
49945;BME280;35838;49.134;9.212;2023-12-22T04:37:03;98643.47;;;6.85;100.00
49945;BME280;35838;49.134;9.212;2023-12-22T04:38:36;98630.59;;;6.83;100.00
49945;BME280;35838;49.134;9.212;2023-12-22T04:40:08;98647.78;;;6.84;100.00
49945;BME280;35838;49.134;9.212;2023-12-22T04:41:41;98633.16;;;6.85;100.00
49945;BME280;35838;49.134;9.212;2023-12-22T04:43:15;98641.75;;;6.85;100.00
49945;BME280;35838;49.134;9.212;2023-12-22T04:44:48;98647.75;;;6.87;100.00
49945;BME280;35838;49.134;9.212;2023-12-22T04:46:19;98645.97;;;6.93;100.00
49945;BME280;35838;49.134;9.212;2023-12-22T04:47:53;98640.00;;;6.89;100.00
49945;BME280;35838;49.134;9.212;2023-12-22T04:51:02;98631.34;;;6.96;100.00
49945;BME280;35838;49.134;9.212;2023-12-22T04:54:28;98633.13;;;6.88;100.00
49945;BME280;35838;49.134;9.212;2023-12-22T04:56:03;98654.66;;;6.85;100.00
49945;BME280;35838;49.134;9.212;2023-12-22T04:57:34;98644.31;;;6.85;100.00
49945;BME280;35838;49.134;9.212;2023-12-22T04:59:10;98655.50;;;6.87;100.00
49945;BME280;35838;49.134;9.212;2023-12-22T05:00:41;98649.47;;;6.88;100.00
49945;BME280;35838;49.134;9.212;2023-12-22T05:02:15;98676.94;;;6.93;100.00
49945;BME280;35838;49.134;9.212;2023-12-22T05:03:46;98676.91;;;6.96;100.00
49945;BME280;35838;49.134;9.212;2023-12-22T05:07:03;98673.41;;;7.04;100.00
49945;BME280;35838;49.134;9.212;2023-12-22T05:10:38;98683.69;;;7.09;100.00
49945;BME280;35838;49.134;9.212;2023-12-22T05:12:23;98669.03;;;7.11;100.00
49945;BME280;35838;49.134;9.212;2023-12-22T05:13:54;98680.22;;;7.09;100.00
49945;BME280;35838;49.134;9.212;2023-12-22T05:15:34;98675.09;;;7.07;100.00
49945;BME280;35838;49.134;9.212;2023-12-22T05:17:05;98662.19;;;7.07;100.00
49945;BME280;35838;49.134;9.212;2023-12-22T05:20:40;98688.03;;;7.01;100.00
49945;BME280;35838;49.134;9.212;2023-12-22T05:24:01;98686.31;;;7.03;100.00
49945;BME280;35838;49.134;9.212;2023-12-22T05:25:34;98684.59;;;7.03;100.00
49945;BME280;35838;49.134;9.212;2023-12-22T05:27:05;98690.63;;;7.02;100.00
49945;BME280;35838;49.134;9.212;2023-12-22T05:28:51;98684.59;;;7.00;100.00
49945;BME280;35838;49.134;9.212;2023-12-22T05:30:22;98677.75;;;6.98;100.00
49945;BME280;35838;49.134;9.212;2023-12-22T05:31:58;98660.59;;;6.95;100.00
49945;BME280;35838;49.134;9.212;2023-12-22T05:33:32;98677.78;;;6.96;100.00
49945;BME280;35838;49.134;9.212;2023-12-22T05:35:03;98693.31;;;6.88;100.00
49945;BME280;35838;49.134;9.212;2023-12-22T05:36:37;98709.66;;;6.87;100.00
49945;BME280;35838;49.134;9.212;2023-12-22T05:38:08;98730.34;;;6.81;100.00
49945;BME280;35838;49.134;9.212;2023-12-22T05:39:41;98708.91;;;6.71;100.00
49945;BME280;35838;49.134;9.212;2023-12-22T05:41:14;98729.66;;;6.53;100.00
49945;BME280;35838;49.134;9.212;2023-12-22T05:42:47;98720.38;;;6.29;100.00
49945;BME280;35838;49.134;9.212;2023-12-22T05:44:18;98726.50;;;6.07;100.00
49945;BME280;35838;49.134;9.212;2023-12-22T05:45:53;98741.16;;;5.85;100.00
49945;BME280;35838;49.134;9.212;2023-12-22T05:47:26;98748.03;;;5.78;100.00
49945;BME280;35838;49.134;9.212;2023-12-22T05:49:00;98749.75;;;5.81;100.00
49945;BME280;35838;49.134;9.212;2023-12-22T05:50:31;98742.84;;;5.92;100.00
49945;BME280;35838;49.134;9.212;2023-12-22T05:52:05;98751.44;;;5.91;100.00
49945;BME280;35838;49.134;9.212;2023-12-22T05:53:40;98750.63;;;5.82;100.00
49945;BME280;35838;49.134;9.212;2023-12-22T05:55:11;98748.91;;;5.70;100.00
49945;BME280;35838;49.134;9.212;2023-12-22T05:56:45;98735.16;;;5.80;100.00
49945;BME280;35838;49.134;9.212;2023-12-22T05:58:16;98747.16;;;5.78;100.00
49945;BME280;35838;49.134;9.212;2023-12-22T05:59:49;98758.28;;;5.86;100.00
49945;BME280;35838;49.134;9.212;2023-12-22T06:01:20;98766.91;;;5.82;100.00
49945;BME280;35838;49.134;9.212;2023-12-22T06:02:57;98773.75;;;5.86;100.00
49945;BME280;35838;49.134;9.212;2023-12-22T06:04:28;98739.44;;;5.84;100.00
49945;BME280;35838;49.134;9.212;2023-12-22T06:06:02;98740.25;;;5.91;100.00
49945;BME280;35838;49.134;9.212;2023-12-22T06:07:33;98739.41;;;6.00;100.00
49945;BME280;35838;49.134;9.212;2023-12-22T06:09:07;98748.88;;;5.99;100.00
49945;BME280;35838;49.134;9.212;2023-12-22T06:10:38;98759.16;;;5.87;100.00
49945;BME280;35838;49.134;9.212;2023-12-22T06:12:11;98750.59;;;5.88;100.00
49945;BME280;35838;49.134;9.212;2023-12-22T06:13:42;98775.47;;;5.90;100.00
49945;BME280;35838;49.134;9.212;2023-12-22T06:15:16;98754.00;;;6.04;100.00
49945;BME280;35838;49.134;9.212;2023-12-22T06:16:49;98762.50;;;6.15;100.00
49945;BME280;35838;49.134;9.212;2023-12-22T06:18:24;98765.94;;;6.22;100.00
49945;BME280;35838;49.134;9.212;2023-12-22T06:19:57;98780.50;;;6.24;100.00
49945;BME280;35838;49.134;9.212;2023-12-22T06:21:28;98776.22;;;6.22;100.00
49945;BME280;35838;49.134;9.212;2023-12-22T06:23:02;98800.25;;;6.27;100.00
49945;BME280;35838;49.134;9.212;2023-12-22T06:24:35;98792.50;;;6.33;100.00
49945;BME280;35838;49.134;9.212;2023-12-22T06:26:09;98787.34;;;6.33;100.00
49945;BME280;35838;49.134;9.212;2023-12-22T06:27:40;98792.50;;;6.38;100.00
49945;BME280;35838;49.134;9.212;2023-12-22T06:29:14;98781.25;;;6.43;100.00
49945;BME280;35838;49.134;9.212;2023-12-22T06:30:46;98776.94;;;6.50;100.00
49945;BME280;35838;49.134;9.212;2023-12-22T06:32:19;98776.97;;;6.52;100.00
49945;BME280;35838;49.134;9.212;2023-12-22T06:33:56;98783.81;;;6.51;100.00
49945;BME280;35838;49.134;9.212;2023-12-22T06:35:32;98785.47;;;6.62;100.00
49945;BME280;35838;49.134;9.212;2023-12-22T06:37:04;98782.03;;;6.63;100.00
49945;BME280;35838;49.134;9.212;2023-12-22T06:38:38;98776.00;;;6.62;100.00
49945;BME280;35838;49.134;9.212;2023-12-22T06:40:10;98774.25;;;6.69;100.00
49945;BME280;35838;49.134;9.212;2023-12-22T06:41:43;98763.06;;;6.71;100.00
49945;BME280;35838;49.134;9.212;2023-12-22T06:43:14;98768.22;;;6.73;100.00
49945;BME280;35838;49.134;9.212;2023-12-22T06:44:48;98763.91;;;6.73;100.00
49945;BME280;35838;49.134;9.212;2023-12-22T06:46:20;98765.59;;;6.79;100.00
49945;BME280;35838;49.134;9.212;2023-12-22T06:47:54;98772.44;;;6.82;100.00
49945;BME280;35838;49.134;9.212;2023-12-22T06:49:28;98763.84;;;6.86;100.00
49945;BME280;35838;49.134;9.212;2023-12-22T06:51:02;98759.50;;;6.91;100.00
49945;BME280;35838;49.134;9.212;2023-12-22T06:52:33;98757.81;;;6.88;100.00
49945;BME280;35838;49.134;9.212;2023-12-22T06:54:06;98789.59;;;6.89;100.00
49945;BME280;35838;49.134;9.212;2023-12-22T06:55:37;98775.84;;;6.92;100.00
49945;BME280;35838;49.134;9.212;2023-12-22T06:57:11;98777.53;;;6.94;100.00
49945;BME280;35838;49.134;9.212;2023-12-22T06:58:43;98793.84;;;6.98;100.00
49945;BME280;35838;49.134;9.212;2023-12-22T07:00:17;98796.44;;;6.98;100.00
49945;BME280;35838;49.134;9.212;2023-12-22T07:01:49;98787.81;;;6.97;100.00
49945;BME280;35838;49.134;9.212;2023-12-22T07:03:22;98791.22;;;7.02;100.00
49945;BME280;35838;49.134;9.212;2023-12-22T07:05:03;98797.25;;;7.04;100.00
49945;BME280;35838;49.134;9.212;2023-12-22T07:06:57;98793.78;;;7.07;100.00
49945;BME280;35838;49.134;9.212;2023-12-22T07:08:30;98806.63;;;7.13;100.00
49945;BME280;35838;49.134;9.212;2023-12-22T07:10:02;98790.28;;;7.14;100.00
49945;BME280;35838;49.134;9.212;2023-12-22T07:11:35;98807.47;;;7.15;100.00
49945;BME280;35838;49.134;9.212;2023-12-22T07:13:06;98794.56;;;7.15;100.00
49945;BME280;35838;49.134;9.212;2023-12-22T07:14:40;98791.13;;;7.16;100.00
49945;BME280;35838;49.134;9.212;2023-12-22T07:16:11;98795.38;;;7.20;100.00
49945;BME280;35838;49.134;9.212;2023-12-22T07:17:45;98796.25;;;7.21;100.00
49945;BME280;35838;49.134;9.212;2023-12-22T07:19:16;98791.94;;;7.18;100.00
49945;BME280;35838;49.134;9.212;2023-12-22T07:20:52;98811.75;;;7.18;100.00
49945;BME280;35838;49.134;9.212;2023-12-22T07:22:25;98808.28;;;7.22;100.00
49945;BME280;35838;49.134;9.212;2023-12-22T07:23:56;98818.56;;;7.25;100.00
49945;BME280;35838;49.134;9.212;2023-12-22T07:25:34;98824.56;;;7.29;100.00
49945;BME280;35838;49.134;9.212;2023-12-22T07:27:08;98828.00;;;7.28;100.00
49945;BME280;35838;49.134;9.212;2023-12-22T07:28:39;98830.56;;;7.31;100.00
49945;BME280;35838;49.134;9.212;2023-12-22T07:30:13;98835.72;;;7.32;100.00
49945;BME280;35838;49.134;9.212;2023-12-22T07:31:46;98833.16;;;7.34;100.00
49945;BME280;35838;49.134;9.212;2023-12-22T07:33:20;98835.75;;;7.29;100.00
49945;BME280;35838;49.134;9.212;2023-12-22T07:34:53;98835.75;;;7.31;100.00
49945;BME280;35838;49.134;9.212;2023-12-22T07:36:28;98848.59;;;7.37;100.00
49945;BME280;35838;49.134;9.212;2023-12-22T07:38:01;98859.81;;;7.36;100.00
49945;BME280;35838;49.134;9.212;2023-12-22T07:39:33;98863.28;;;7.32;100.00
49945;BME280;35838;49.134;9.212;2023-12-22T07:41:07;98859.81;;;7.33;100.00
49945;BME280;35838;49.134;9.212;2023-12-22T07:42:38;98872.72;;;7.34;100.00
49945;BME280;35838;49.134;9.212;2023-12-22T07:44:12;98872.72;;;7.36;100.00
49945;BME280;35838;49.134;9.212;2023-12-22T07:45:43;98877.91;;;7.30;100.00
49945;BME280;35838;49.134;9.212;2023-12-22T07:47:18;98877.91;;;7.30;100.00
49945;BME280;35838;49.134;9.212;2023-12-22T07:48:49;98896.84;;;7.27;100.00
49945;BME280;35838;49.134;9.212;2023-12-22T07:50:23;98903.72;;;7.28;100.00
49945;BME280;35838;49.134;9.212;2023-12-22T07:51:56;98901.13;;;7.30;100.00
49945;BME280;35838;49.134;9.212;2023-12-22T07:53:30;98889.97;;;7.29;100.00
49945;BME280;35838;49.134;9.212;2023-12-22T07:55:01;98870.16;;;7.30;100.00
49945;BME280;35838;49.134;9.212;2023-12-22T07:56:35;98877.03;;;7.31;100.00
49945;BME280;35838;49.134;9.212;2023-12-22T07:58:06;98886.50;;;7.29;100.00
49945;BME280;35838;49.134;9.212;2023-12-22T07:59:40;98896.81;;;7.32;100.00
49945;BME280;35838;49.134;9.212;2023-12-22T08:01:11;98902.00;;;7.29;100.00
49945;BME280;35838;49.134;9.212;2023-12-22T08:02:45;98900.28;;;7.28;100.00
49945;BME280;35838;49.134;9.212;2023-12-22T08:04:16;98896.00;;;7.28;100.00
49945;BME280;35838;49.134;9.212;2023-12-22T08:05:50;98897.66;;;7.35;100.00
49945;BME280;35838;49.134;9.212;2023-12-22T08:07:24;98894.22;;;7.33;100.00
49945;BME280;35838;49.134;9.212;2023-12-22T08:08:57;98910.59;;;7.31;100.00
49945;BME280;35838;49.134;9.212;2023-12-22T08:10:28;98903.72;;;7.31;100.00
49945;BME280;35838;49.134;9.212;2023-12-22T08:12:02;98902.88;;;7.26;100.00
49945;BME280;35838;49.134;9.212;2023-12-22T08:13:33;98902.84;;;7.28;100.00
49945;BME280;35838;49.134;9.212;2023-12-22T08:15:08;98910.59;;;7.28;100.00
49945;BME280;35838;49.134;9.212;2023-12-22T08:16:42;98908.94;;;7.24;100.00
49945;BME280;35838;49.134;9.212;2023-12-22T08:18:15;98910.66;;;7.18;100.00
49945;BME280;35838;49.134;9.212;2023-12-22T08:19:48;98938.19;;;7.18;100.00
49945;BME280;35838;49.134;9.212;2023-12-22T08:21:20;98917.63;;;7.07;100.00
49945;BME280;35838;49.134;9.212;2023-12-22T08:22:56;98928.00;;;6.98;100.00
49945;BME280;35838;49.134;9.212;2023-12-22T08:24:27;98933.19;;;6.85;100.00
49945;BME280;35838;49.134;9.212;2023-12-22T08:26:02;98930.66;;;6.82;100.00